sensor_id;sensor_type;location;lat;lon;timestamp;P1;durP1;ratioP1;P2;durP2;ratioP2
34019;SDS011;20895;51.034;3.742;2023-05-02T00:01:01;26.92;;;17.75;;
34019;SDS011;20895;51.034;3.742;2023-05-02T00:03:29;24.83;;;17.48;;
34019;SDS011;20895;51.034;3.742;2023-05-02T00:05:54;27.55;;;18.38;;
34019;SDS011;20895;51.034;3.742;2023-05-02T00:08:19;24.45;;;17.23;;
34019;SDS011;20895;51.034;3.742;2023-05-02T00:10:45;23.25;;;17.58;;
34019;SDS011;20895;51.034;3.742;2023-05-02T00:13:10;25.52;;;15.95;;
34019;SDS011;20895;51.034;3.742;2023-05-02T00:15:36;24.35;;;18.50;;
34019;SDS011;20895;51.034;3.742;2023-05-02T00:18:01;26.35;;;17.92;;
34019;SDS011;20895;51.034;3.742;2023-05-02T00:20:26;28.52;;;18.83;;
34019;SDS011;20895;51.034;3.742;2023-05-02T00:22:52;29.65;;;18.55;;
34019;SDS011;20895;51.034;3.742;2023-05-02T00:25:17;25.50;;;18.60;;
34019;SDS011;20895;51.034;3.742;2023-05-02T00:27:42;27.40;;;18.05;;
34019;SDS011;20895;51.034;3.742;2023-05-02T00:30:08;28.08;;;18.63;;
34019;SDS011;20895;51.034;3.742;2023-05-02T00:32:33;31.10;;;19.63;;
34019;SDS011;20895;51.034;3.742;2023-05-02T00:34:59;30.17;;;19.48;;
34019;SDS011;20895;51.034;3.742;2023-05-02T00:37:25;24.05;;;18.13;;
34019;SDS011;20895;51.034;3.742;2023-05-02T00:39:51;28.67;;;19.70;;
34019;SDS011;20895;51.034;3.742;2023-05-02T00:42:16;32.35;;;20.85;;
34019;SDS011;20895;51.034;3.742;2023-05-02T00:44:41;32.13;;;20.50;;
34019;SDS011;20895;51.034;3.742;2023-05-02T00:47:07;25.52;;;18.85;;
34019;SDS011;20895;51.034;3.742;2023-05-02T00:49:32;29.73;;;20.27;;
34019;SDS011;20895;51.034;3.742;2023-05-02T00:51:57;30.27;;;19.73;;
34019;SDS011;20895;51.034;3.742;2023-05-02T00:54:23;31.77;;;21.05;;
34019;SDS011;20895;51.034;3.742;2023-05-02T00:56:48;29.63;;;20.70;;
34019;SDS011;20895;51.034;3.742;2023-05-02T00:59:13;33.55;;;21.65;;
34019;SDS011;20895;51.034;3.742;2023-05-02T01:04:27;29.70;;;21.42;;
34019;SDS011;20895;51.034;3.742;2023-05-02T01:06:58;28.33;;;21.75;;
34019;SDS011;20895;51.034;3.742;2023-05-02T01:09:41;34.30;;;22.70;;
34019;SDS011;20895;51.034;3.742;2023-05-02T01:12:15;38.08;;;24.17;;
34019;SDS011;20895;51.034;3.742;2023-05-02T01:14:46;33.78;;;23.35;;
34019;SDS011;20895;51.034;3.742;2023-05-02T01:17:13;36.20;;;25.77;;
34019;SDS011;20895;51.034;3.742;2023-05-02T01:19:41;38.05;;;25.20;;
34019;SDS011;20895;51.034;3.742;2023-05-02T01:22:08;34.08;;;25.45;;
34019;SDS011;20895;51.034;3.742;2023-05-02T01:24:36;35.33;;;26.10;;
34019;SDS011;20895;51.034;3.742;2023-05-02T01:29:29;37.70;;;27.73;;
34019;SDS011;20895;51.034;3.742;2023-05-02T01:31:55;39.83;;;27.10;;
34019;SDS011;20895;51.034;3.742;2023-05-02T01:34:20;38.53;;;26.23;;
34019;SDS011;20895;51.034;3.742;2023-05-02T01:36:47;37.63;;;27.45;;
34019;SDS011;20895;51.034;3.742;2023-05-02T01:39:18;41.15;;;26.92;;
34019;SDS011;20895;51.034;3.742;2023-05-02T01:41:45;34.78;;;27.23;;
34019;SDS011;20895;51.034;3.742;2023-05-02T01:44:11;37.42;;;26.23;;
34019;SDS011;20895;51.034;3.742;2023-05-02T01:46:37;37.92;;;27.65;;
34019;SDS011;20895;51.034;3.742;2023-05-02T01:49:04;40.35;;;27.05;;
34019;SDS011;20895;51.034;3.742;2023-05-02T01:51:32;41.00;;;27.77;;
34019;SDS011;20895;51.034;3.742;2023-05-02T01:53:58;44.13;;;28.63;;
34019;SDS011;20895;51.034;3.742;2023-05-02T01:56:25;37.88;;;26.25;;
34019;SDS011;20895;51.034;3.742;2023-05-02T01:58:51;41.65;;;28.05;;
34019;SDS011;20895;51.034;3.742;2023-05-02T02:01:18;39.92;;;27.20;;
34019;SDS011;20895;51.034;3.742;2023-05-02T02:03:43;32.88;;;26.15;;
34019;SDS011;20895;51.034;3.742;2023-05-02T02:06:10;40.47;;;26.35;;
34019;SDS011;20895;51.034;3.742;2023-05-02T02:08:36;36.30;;;26.08;;
34019;SDS011;20895;51.034;3.742;2023-05-02T02:11:03;38.55;;;27.17;;
34019;SDS011;20895;51.034;3.742;2023-05-02T02:13:36;36.95;;;25.88;;
34019;SDS011;20895;51.034;3.742;2023-05-02T02:16:03;34.30;;;24.63;;
34019;SDS011;20895;51.034;3.742;2023-05-02T02:18:31;37.10;;;24.17;;
34019;SDS011;20895;51.034;3.742;2023-05-02T02:20:59;36.13;;;26.73;;
34019;SDS011;20895;51.034;3.742;2023-05-02T02:23:25;37.88;;;26.45;;
34019;SDS011;20895;51.034;3.742;2023-05-02T02:25:51;34.75;;;23.83;;
34019;SDS011;20895;51.034;3.742;2023-05-02T02:28:18;36.13;;;26.83;;
34019;SDS011;20895;51.034;3.742;2023-05-02T02:30:43;32.55;;;24.08;;
34019;SDS011;20895;51.034;3.742;2023-05-02T02:33:08;37.78;;;25.15;;
34019;SDS011;20895;51.034;3.742;2023-05-02T02:35:36;31.73;;;23.27;;
34019;SDS011;20895;51.034;3.742;2023-05-02T02:38:19;33.00;;;23.27;;
34019;SDS011;20895;51.034;3.742;2023-05-02T02:40:48;35.20;;;25.15;;
34019;SDS011;20895;51.034;3.742;2023-05-02T02:43:35;37.35;;;25.83;;
34019;SDS011;20895;51.034;3.742;2023-05-02T02:46:16;40.08;;;27.02;;
34019;SDS011;20895;51.034;3.742;2023-05-02T02:49:08;32.25;;;23.40;;
34019;SDS011;20895;51.034;3.742;2023-05-02T02:51:30;33.13;;;23.10;;
34019;SDS011;20895;51.034;3.742;2023-05-02T02:54:03;35.28;;;23.83;;
34019;SDS011;20895;51.034;3.742;2023-05-02T02:56:35;32.40;;;23.75;;
34019;SDS011;20895;51.034;3.742;2023-05-02T03:01:36;35.05;;;23.70;;
34019;SDS011;20895;51.034;3.742;2023-05-02T03:04:04;35.95;;;23.88;;
34019;SDS011;20895;51.034;3.742;2023-05-02T03:06:31;31.42;;;21.75;;
34019;SDS011;20895;51.034;3.742;2023-05-02T03:08:56;34.92;;;23.67;;
34019;SDS011;20895;51.034;3.742;2023-05-02T03:11:22;32.00;;;22.13;;
34019;SDS011;20895;51.034;3.742;2023-05-02T03:13:47;33.90;;;23.80;;
34019;SDS011;20895;51.034;3.742;2023-05-02T03:18:57;35.28;;;24.05;;
34019;SDS011;20895;51.034;3.742;2023-05-02T03:21:22;36.45;;;23.38;;
34019;SDS011;20895;51.034;3.742;2023-05-02T03:23:48;32.97;;;22.75;;
34019;SDS011;20895;51.034;3.742;2023-05-02T03:26:13;32.22;;;22.45;;
34019;SDS011;20895;51.034;3.742;2023-05-02T03:28:38;34.88;;;23.50;;
34019;SDS011;20895;51.034;3.742;2023-05-02T03:31:04;32.88;;;23.48;;
34019;SDS011;20895;51.034;3.742;2023-05-02T03:33:29;32.70;;;23.95;;
34019;SDS011;20895;51.034;3.742;2023-05-02T03:35:54;36.90;;;25.40;;
34019;SDS011;20895;51.034;3.742;2023-05-02T03:38:20;37.13;;;24.60;;
34019;SDS011;20895;51.034;3.742;2023-05-02T03:40:45;34.78;;;23.67;;
34019;SDS011;20895;51.034;3.742;2023-05-02T03:43:11;36.13;;;25.48;;
34019;SDS011;20895;51.034;3.742;2023-05-02T03:45:36;35.83;;;23.67;;
34019;SDS011;20895;51.034;3.742;2023-05-02T03:48:01;34.47;;;23.38;;
34019;SDS011;20895;51.034;3.742;2023-05-02T03:50:27;34.63;;;24.13;;
34019;SDS011;20895;51.034;3.742;2023-05-02T03:52:52;34.70;;;23.05;;
34019;SDS011;20895;51.034;3.742;2023-05-02T03:55:17;36.45;;;24.52;;
34019;SDS011;20895;51.034;3.742;2023-05-02T03:57:43;31.17;;;22.38;;
34019;SDS011;20895;51.034;3.742;2023-05-02T04:00:08;34.13;;;23.15;;
34019;SDS011;20895;51.034;3.742;2023-05-02T04:02:34;31.85;;;21.40;;
34019;SDS011;20895;51.034;3.742;2023-05-02T04:04:59;28.48;;;20.48;;
34019;SDS011;20895;51.034;3.742;2023-05-02T04:07:24;28.02;;;20.67;;
34019;SDS011;20895;51.034;3.742;2023-05-02T04:09:50;26.77;;;20.23;;
34019;SDS011;20895;51.034;3.742;2023-05-02T04:12:15;30.08;;;20.08;;
34019;SDS011;20895;51.034;3.742;2023-05-02T04:14:41;27.13;;;19.58;;
34019;SDS011;20895;51.034;3.742;2023-05-02T04:17:06;26.90;;;18.70;;
34019;SDS011;20895;51.034;3.742;2023-05-02T04:19:32;26.52;;;17.40;;
34019;SDS011;20895;51.034;3.742;2023-05-02T04:21:57;30.20;;;19.35;;
34019;SDS011;20895;51.034;3.742;2023-05-02T04:24:23;23.45;;;17.27;;
34019;SDS011;20895;51.034;3.742;2023-05-02T04:26:49;29.20;;;17.50;;
34019;SDS011;20895;51.034;3.742;2023-05-02T04:29:14;27.73;;;18.77;;
34019;SDS011;20895;51.034;3.742;2023-05-02T04:31:40;24.58;;;18.38;;
34019;SDS011;20895;51.034;3.742;2023-05-02T04:34:05;23.75;;;17.60;;
34019;SDS011;20895;51.034;3.742;2023-05-02T04:36:31;30.48;;;17.98;;
34019;SDS011;20895;51.034;3.742;2023-05-02T04:38:56;26.77;;;20.63;;
34019;SDS011;20895;51.034;3.742;2023-05-02T04:41:22;27.20;;;15.65;;
34019;SDS011;20895;51.034;3.742;2023-05-02T04:43:47;21.60;;;14.07;;
34019;SDS011;20895;51.034;3.742;2023-05-02T04:46:12;21.02;;;12.10;;
34019;SDS011;20895;51.034;3.742;2023-05-02T04:48:37;19.30;;;11.45;;
34019;SDS011;20895;51.034;3.742;2023-05-02T04:51:06;19.02;;;13.35;;
34019;SDS011;20895;51.034;3.742;2023-05-02T04:53:31;19.48;;;14.32;;
34019;SDS011;20895;51.034;3.742;2023-05-02T04:55:57;19.52;;;13.60;;
34019;SDS011;20895;51.034;3.742;2023-05-02T04:58:22;24.30;;;12.68;;
34019;SDS011;20895;51.034;3.742;2023-05-02T05:00:48;17.33;;;11.77;;
34019;SDS011;20895;51.034;3.742;2023-05-02T05:03:13;21.63;;;13.80;;
34019;SDS011;20895;51.034;3.742;2023-05-02T05:05:38;20.20;;;12.07;;
34019;SDS011;20895;51.034;3.742;2023-05-02T05:08:03;16.08;;;11.52;;
34019;SDS011;20895;51.034;3.742;2023-05-02T05:10:29;14.95;;;11.80;;
34019;SDS011;20895;51.034;3.742;2023-05-02T05:12:54;14.23;;;11.10;;
34019;SDS011;20895;51.034;3.742;2023-05-02T05:15:19;17.42;;;12.20;;
34019;SDS011;20895;51.034;3.742;2023-05-02T05:17:46;14.15;;;10.23;;
34019;SDS011;20895;51.034;3.742;2023-05-02T05:20:11;14.43;;;10.18;;
34019;SDS011;20895;51.034;3.742;2023-05-02T05:22:40;12.00;;;6.63;;
34019;SDS011;20895;51.034;3.742;2023-05-02T05:25:07;10.15;;;6.68;;
34019;SDS011;20895;51.034;3.742;2023-05-02T05:27:35;9.02;;;6.13;;
34019;SDS011;20895;51.034;3.742;2023-05-02T05:30:01;19.75;;;8.82;;
34019;SDS011;20895;51.034;3.742;2023-05-02T05:32:27;12.13;;;8.52;;
34019;SDS011;20895;51.034;3.742;2023-05-02T05:34:55;13.32;;;9.10;;
34019;SDS011;20895;51.034;3.742;2023-05-02T05:37:20;13.77;;;6.90;;
34019;SDS011;20895;51.034;3.742;2023-05-02T05:39:46;11.38;;;6.22;;
34019;SDS011;20895;51.034;3.742;2023-05-02T05:42:11;13.45;;;6.10;;
34019;SDS011;20895;51.034;3.742;2023-05-02T05:44:37;9.55;;;5.22;;
34019;SDS011;20895;51.034;3.742;2023-05-02T05:47:02;9.90;;;6.15;;
34019;SDS011;20895;51.034;3.742;2023-05-02T05:49:27;13.80;;;5.28;;
34019;SDS011;20895;51.034;3.742;2023-05-02T05:51:53;14.73;;;5.53;;
34019;SDS011;20895;51.034;3.742;2023-05-02T05:54:18;10.63;;;5.57;;
34019;SDS011;20895;51.034;3.742;2023-05-02T05:56:44;11.68;;;6.18;;
34019;SDS011;20895;51.034;3.742;2023-05-02T05:59:09;10.27;;;5.10;;
34019;SDS011;20895;51.034;3.742;2023-05-02T06:01:34;10.45;;;5.38;;
34019;SDS011;20895;51.034;3.742;2023-05-02T06:04:00;10.45;;;5.20;;
34019;SDS011;20895;51.034;3.742;2023-05-02T06:06:26;12.80;;;5.15;;
34019;SDS011;20895;51.034;3.742;2023-05-02T06:08:52;12.90;;;5.68;;
34019;SDS011;20895;51.034;3.742;2023-05-02T06:11:17;12.27;;;5.18;;
34019;SDS011;20895;51.034;3.742;2023-05-02T06:13:42;14.55;;;4.70;;
34019;SDS011;20895;51.034;3.742;2023-05-02T06:16:07;12.75;;;5.72;;
34019;SDS011;20895;51.034;3.742;2023-05-02T06:18:33;14.95;;;5.18;;
34019;SDS011;20895;51.034;3.742;2023-05-02T06:21:02;11.20;;;6.05;;
34019;SDS011;20895;51.034;3.742;2023-05-02T06:23:27;16.20;;;6.28;;
34019;SDS011;20895;51.034;3.742;2023-05-02T06:25:52;17.30;;;7.68;;
34019;SDS011;20895;51.034;3.742;2023-05-02T06:28:18;13.10;;;6.53;;
34019;SDS011;20895;51.034;3.742;2023-05-02T06:30:43;16.55;;;6.68;;
34019;SDS011;20895;51.034;3.742;2023-05-02T06:33:08;20.65;;;9.13;;
34019;SDS011;20895;51.034;3.742;2023-05-02T06:35:33;23.20;;;9.45;;
34019;SDS011;20895;51.034;3.742;2023-05-02T06:37:59;17.48;;;10.02;;
34019;SDS011;20895;51.034;3.742;2023-05-02T06:40:24;18.58;;;7.95;;
34019;SDS011;20895;51.034;3.742;2023-05-02T06:42:50;20.15;;;9.13;;
34019;SDS011;20895;51.034;3.742;2023-05-02T06:45:15;16.77;;;8.38;;
34019;SDS011;20895;51.034;3.742;2023-05-02T06:47:40;19.42;;;8.77;;
34019;SDS011;20895;51.034;3.742;2023-05-02T06:50:06;19.30;;;12.55;;
34019;SDS011;20895;51.034;3.742;2023-05-02T06:52:31;20.85;;;9.82;;
34019;SDS011;20895;51.034;3.742;2023-05-02T06:54:56;14.55;;;7.82;;
34019;SDS011;20895;51.034;3.742;2023-05-02T06:57:23;21.95;;;8.68;;
34019;SDS011;20895;51.034;3.742;2023-05-02T06:59:48;13.57;;;7.45;;
34019;SDS011;20895;51.034;3.742;2023-05-02T07:02:14;17.27;;;7.85;;
34019;SDS011;20895;51.034;3.742;2023-05-02T07:04:39;10.85;;;5.07;;
34019;SDS011;20895;51.034;3.742;2023-05-02T07:07:04;13.15;;;5.25;;
34019;SDS011;20895;51.034;3.742;2023-05-02T07:09:30;9.15;;;4.05;;
34019;SDS011;20895;51.034;3.742;2023-05-02T07:11:55;8.88;;;4.13;;
34019;SDS011;20895;51.034;3.742;2023-05-02T07:14:20;9.07;;;5.18;;
34019;SDS011;20895;51.034;3.742;2023-05-02T07:16:46;13.18;;;5.35;;
34019;SDS011;20895;51.034;3.742;2023-05-02T07:19:11;10.95;;;5.90;;
34019;SDS011;20895;51.034;3.742;2023-05-02T07:21:36;15.52;;;6.45;;
34019;SDS011;20895;51.034;3.742;2023-05-02T07:24:01;10.32;;;4.25;;
34019;SDS011;20895;51.034;3.742;2023-05-02T07:26:27;7.90;;;3.33;;
34019;SDS011;20895;51.034;3.742;2023-05-02T07:28:52;11.30;;;3.83;;
34019;SDS011;20895;51.034;3.742;2023-05-02T07:31:17;8.38;;;3.67;;
34019;SDS011;20895;51.034;3.742;2023-05-02T07:33:43;6.97;;;2.55;;
34019;SDS011;20895;51.034;3.742;2023-05-02T07:36:08;7.53;;;2.80;;
34019;SDS011;20895;51.034;3.742;2023-05-02T07:38:33;10.38;;;5.10;;
34019;SDS011;20895;51.034;3.742;2023-05-02T07:40:59;8.15;;;5.30;;
34019;SDS011;20895;51.034;3.742;2023-05-02T07:43:24;11.15;;;4.28;;
34019;SDS011;20895;51.034;3.742;2023-05-02T07:45:50;9.15;;;3.60;;
34019;SDS011;20895;51.034;3.742;2023-05-02T07:48:15;10.90;;;3.78;;
34019;SDS011;20895;51.034;3.742;2023-05-02T07:50:41;14.85;;;5.50;;
34019;SDS011;20895;51.034;3.742;2023-05-02T07:53:06;11.65;;;4.53;;
34019;SDS011;20895;51.034;3.742;2023-05-02T07:55:31;17.77;;;4.57;;
34019;SDS011;20895;51.034;3.742;2023-05-02T07:57:57;11.02;;;4.32;;
34019;SDS011;20895;51.034;3.742;2023-05-02T08:00:22;9.98;;;3.42;;
34019;SDS011;20895;51.034;3.742;2023-05-02T08:02:47;8.93;;;3.42;;
34019;SDS011;20895;51.034;3.742;2023-05-02T08:05:13;11.18;;;3.72;;
34019;SDS011;20895;51.034;3.742;2023-05-02T08:07:38;17.95;;;6.78;;
34019;SDS011;20895;51.034;3.742;2023-05-02T08:10:04;11.93;;;7.03;;
34019;SDS011;20895;51.034;3.742;2023-05-02T08:12:30;14.52;;;9.20;;
34019;SDS011;20895;51.034;3.742;2023-05-02T08:14:55;24.88;;;15.75;;
34019;SDS011;20895;51.034;3.742;2023-05-02T08:17:20;28.63;;;17.02;;
34019;SDS011;20895;51.034;3.742;2023-05-02T08:19:46;18.67;;;12.45;;
34019;SDS011;20895;51.034;3.742;2023-05-02T08:22:11;21.52;;;9.88;;
34019;SDS011;20895;51.034;3.742;2023-05-02T08:24:36;14.73;;;9.77;;
34019;SDS011;20895;51.034;3.742;2023-05-02T08:27:02;15.23;;;7.35;;
34019;SDS011;20895;51.034;3.742;2023-05-02T08:29:28;12.63;;;5.72;;
34019;SDS011;20895;51.034;3.742;2023-05-02T08:31:54;10.95;;;3.88;;
34019;SDS011;20895;51.034;3.742;2023-05-02T08:34:19;11.85;;;4.57;;
34019;SDS011;20895;51.034;3.742;2023-05-02T08:36:45;16.52;;;4.82;;
34019;SDS011;20895;51.034;3.742;2023-05-02T08:39:11;16.13;;;4.97;;
34019;SDS011;20895;51.034;3.742;2023-05-02T08:41:36;17.92;;;6.65;;
34019;SDS011;20895;51.034;3.742;2023-05-02T08:44:02;11.73;;;8.20;;
34019;SDS011;20895;51.034;3.742;2023-05-02T08:46:28;14.40;;;9.68;;
34019;SDS011;20895;51.034;3.742;2023-05-02T08:48:54;15.45;;;8.80;;
34019;SDS011;20895;51.034;3.742;2023-05-02T08:51:22;12.38;;;6.07;;
34019;SDS011;20895;51.034;3.742;2023-05-02T08:53:48;11.05;;;5.63;;
34019;SDS011;20895;51.034;3.742;2023-05-02T08:56:14;8.75;;;4.35;;
34019;SDS011;20895;51.034;3.742;2023-05-02T08:58:40;8.63;;;3.75;;
34019;SDS011;20895;51.034;3.742;2023-05-02T09:01:15;9.02;;;4.50;;
34019;SDS011;20895;51.034;3.742;2023-05-02T09:03:44;12.32;;;5.03;;
34019;SDS011;20895;51.034;3.742;2023-05-02T09:06:16;14.32;;;4.70;;
34019;SDS011;20895;51.034;3.742;2023-05-02T09:08:42;15.20;;;4.35;;
34019;SDS011;20895;51.034;3.742;2023-05-02T09:11:08;9.52;;;4.43;;
34019;SDS011;20895;51.034;3.742;2023-05-02T09:13:35;13.90;;;5.78;;
34019;SDS011;20895;51.034;3.742;2023-05-02T09:16:02;15.02;;;5.18;;
34019;SDS011;20895;51.034;3.742;2023-05-02T09:18:28;14.48;;;4.90;;
34019;SDS011;20895;51.034;3.742;2023-05-02T09:20:54;10.70;;;4.80;;
34019;SDS011;20895;51.034;3.742;2023-05-02T09:23:19;12.02;;;5.15;;
34019;SDS011;20895;51.034;3.742;2023-05-02T09:25:44;11.55;;;4.60;;
34019;SDS011;20895;51.034;3.742;2023-05-02T09:28:10;9.75;;;4.47;;
34019;SDS011;20895;51.034;3.742;2023-05-02T09:30:35;15.32;;;4.82;;
34019;SDS011;20895;51.034;3.742;2023-05-02T09:33:00;14.20;;;4.28;;
34019;SDS011;20895;51.034;3.742;2023-05-02T09:35:26;15.98;;;5.78;;
34019;SDS011;20895;51.034;3.742;2023-05-02T09:37:52;14.00;;;5.90;;
34019;SDS011;20895;51.034;3.742;2023-05-02T09:40:17;12.48;;;5.25;;
34019;SDS011;20895;51.034;3.742;2023-05-02T09:42:43;13.43;;;5.50;;
34019;SDS011;20895;51.034;3.742;2023-05-02T09:45:16;14.73;;;5.28;;
34019;SDS011;20895;51.034;3.742;2023-05-02T09:47:43;12.82;;;4.35;;
34019;SDS011;20895;51.034;3.742;2023-05-02T09:50:09;16.85;;;5.00;;
34019;SDS011;20895;51.034;3.742;2023-05-02T09:52:34;14.13;;;6.22;;
34019;SDS011;20895;51.034;3.742;2023-05-02T09:55:00;11.45;;;4.90;;
34019;SDS011;20895;51.034;3.742;2023-05-02T09:57:40;12.52;;;4.80;;
34019;SDS011;20895;51.034;3.742;2023-05-02T10:00:05;10.07;;;4.70;;
34019;SDS011;20895;51.034;3.742;2023-05-02T10:02:31;10.73;;;6.13;;
34019;SDS011;20895;51.034;3.742;2023-05-02T10:04:57;11.02;;;5.10;;
34019;SDS011;20895;51.034;3.742;2023-05-02T10:07:23;11.20;;;5.15;;
34019;SDS011;20895;51.034;3.742;2023-05-02T10:09:49;13.43;;;4.93;;
34019;SDS011;20895;51.034;3.742;2023-05-02T10:12:15;11.43;;;4.45;;
34019;SDS011;20895;51.034;3.742;2023-05-02T10:14:47;12.80;;;4.65;;
34019;SDS011;20895;51.034;3.742;2023-05-02T10:17:15;7.82;;;3.97;;
34019;SDS011;20895;51.034;3.742;2023-05-02T10:19:53;9.77;;;4.50;;
34019;SDS011;20895;51.034;3.742;2023-05-02T10:22:21;11.93;;;4.20;;
34019;SDS011;20895;51.034;3.742;2023-05-02T10:24:47;15.95;;;4.55;;
34019;SDS011;20895;51.034;3.742;2023-05-02T10:27:13;8.20;;;3.50;;
34019;SDS011;20895;51.034;3.742;2023-05-02T10:29:38;11.38;;;3.55;;
34019;SDS011;20895;51.034;3.742;2023-05-02T10:32:05;9.80;;;4.10;;
34019;SDS011;20895;51.034;3.742;2023-05-02T10:34:31;9.55;;;3.72;;
34019;SDS011;20895;51.034;3.742;2023-05-02T10:36:57;11.25;;;3.72;;
34019;SDS011;20895;51.034;3.742;2023-05-02T10:39:26;10.35;;;4.07;;
34019;SDS011;20895;51.034;3.742;2023-05-02T10:41:51;9.90;;;4.13;;
34019;SDS011;20895;51.034;3.742;2023-05-02T10:44:30;12.15;;;3.70;;
34019;SDS011;20895;51.034;3.742;2023-05-02T10:46:56;11.65;;;3.80;;
34019;SDS011;20895;51.034;3.742;2023-05-02T10:49:21;8.93;;;3.63;;
34019;SDS011;20895;51.034;3.742;2023-05-02T10:51:48;12.57;;;4.00;;
34019;SDS011;20895;51.034;3.742;2023-05-02T10:54:23;10.30;;;4.25;;
34019;SDS011;20895;51.034;3.742;2023-05-02T10:59:33;8.85;;;4.70;;
34019;SDS011;20895;51.034;3.742;2023-05-02T11:01:59;7.53;;;3.80;;
34019;SDS011;20895;51.034;3.742;2023-05-02T11:04:25;12.15;;;4.45;;
34019;SDS011;20895;51.034;3.742;2023-05-02T11:11:51;9.43;;;4.35;;
34019;SDS011;20895;51.034;3.742;2023-05-02T11:24:42;10.25;;;4.90;;
34019;SDS011;20895;51.034;3.742;2023-05-02T11:32:23;9.13;;;3.83;;
34019;SDS011;20895;51.034;3.742;2023-05-02T11:34:49;11.70;;;4.00;;
34019;SDS011;20895;51.034;3.742;2023-05-02T11:37:16;11.38;;;4.05;;
34019;SDS011;20895;51.034;3.742;2023-05-02T11:39:42;9.20;;;3.70;;
34019;SDS011;20895;51.034;3.742;2023-05-02T11:42:08;12.48;;;3.90;;
34019;SDS011;20895;51.034;3.742;2023-05-02T11:44:33;7.25;;;2.45;;
34019;SDS011;20895;51.034;3.742;2023-05-02T11:47:00;8.10;;;3.45;;
34019;SDS011;20895;51.034;3.742;2023-05-02T11:49:26;6.15;;;3.67;;
34019;SDS011;20895;51.034;3.742;2023-05-02T11:51:51;7.75;;;3.10;;
34019;SDS011;20895;51.034;3.742;2023-05-02T11:54:17;10.45;;;3.60;;
34019;SDS011;20895;51.034;3.742;2023-05-02T11:56:43;6.68;;;2.97;;
34019;SDS011;20895;51.034;3.742;2023-05-02T11:59:08;9.73;;;3.53;;
34019;SDS011;20895;51.034;3.742;2023-05-02T12:01:33;8.35;;;3.20;;
34019;SDS011;20895;51.034;3.742;2023-05-02T12:04:05;10.00;;;4.65;;
34019;SDS011;20895;51.034;3.742;2023-05-02T12:06:34;11.85;;;3.90;;
34019;SDS011;20895;51.034;3.742;2023-05-02T12:09:06;7.15;;;2.72;;
34019;SDS011;20895;51.034;3.742;2023-05-02T12:11:32;8.13;;;3.50;;
34019;SDS011;20895;51.034;3.742;2023-05-02T12:13:57;8.57;;;4.13;;
34019;SDS011;20895;51.034;3.742;2023-05-02T12:16:22;10.57;;;3.50;;
34019;SDS011;20895;51.034;3.742;2023-05-02T12:18:48;9.35;;;3.67;;
34019;SDS011;20895;51.034;3.742;2023-05-02T12:21:13;8.48;;;3.40;;
34019;SDS011;20895;51.034;3.742;2023-05-02T12:23:39;6.32;;;2.80;;
34019;SDS011;20895;51.034;3.742;2023-05-02T12:29:01;11.00;;;3.20;;
34019;SDS011;20895;51.034;3.742;2023-05-02T12:31:26;6.72;;;3.22;;
34019;SDS011;20895;51.034;3.742;2023-05-02T12:33:55;9.00;;;6.95;;
34019;SDS011;20895;51.034;3.742;2023-05-02T12:36:21;12.43;;;3.67;;
34019;SDS011;20895;51.034;3.742;2023-05-02T12:38:50;9.77;;;4.18;;
34019;SDS011;20895;51.034;3.742;2023-05-02T12:41:17;5.28;;;2.83;;
34019;SDS011;20895;51.034;3.742;2023-05-02T12:43:46;8.73;;;4.03;;
34019;SDS011;20895;51.034;3.742;2023-05-02T12:46:11;8.85;;;3.28;;
34019;SDS011;20895;51.034;3.742;2023-05-02T12:48:37;8.00;;;3.13;;
34019;SDS011;20895;51.034;3.742;2023-05-02T12:51:02;8.63;;;2.95;;
34019;SDS011;20895;51.034;3.742;2023-05-02T12:56:02;10.10;;;3.35;;
34019;SDS011;20895;51.034;3.742;2023-05-02T12:58:28;8.57;;;3.72;;
34019;SDS011;20895;51.034;3.742;2023-05-02T13:00:53;9.45;;;3.72;;
34019;SDS011;20895;51.034;3.742;2023-05-02T13:03:19;8.02;;;3.03;;
34019;SDS011;20895;51.034;3.742;2023-05-02T13:05:45;9.80;;;3.05;;
34019;SDS011;20895;51.034;3.742;2023-05-02T13:08:10;11.38;;;3.75;;
34019;SDS011;20895;51.034;3.742;2023-05-02T13:10:36;7.25;;;3.42;;
34019;SDS011;20895;51.034;3.742;2023-05-02T13:13:01;31.40;;;5.13;;
34019;SDS011;20895;51.034;3.742;2023-05-02T13:15:26;7.18;;;3.67;;
34019;SDS011;20895;51.034;3.742;2023-05-02T13:17:51;7.30;;;3.45;;
34019;SDS011;20895;51.034;3.742;2023-05-02T13:20:17;6.18;;;2.53;;
34019;SDS011;20895;51.034;3.742;2023-05-02T13:22:42;7.35;;;3.17;;
34019;SDS011;20895;51.034;3.742;2023-05-02T13:25:08;9.27;;;3.40;;
34019;SDS011;20895;51.034;3.742;2023-05-02T13:27:33;7.95;;;2.67;;
34019;SDS011;20895;51.034;3.742;2023-05-02T13:29:59;8.85;;;3.33;;
34019;SDS011;20895;51.034;3.742;2023-05-02T13:32:25;6.72;;;3.17;;
34019;SDS011;20895;51.034;3.742;2023-05-02T13:34:51;10.65;;;3.38;;
34019;SDS011;20895;51.034;3.742;2023-05-02T13:37:16;7.30;;;2.58;;
34019;SDS011;20895;51.034;3.742;2023-05-02T13:39:41;7.85;;;3.13;;
34019;SDS011;20895;51.034;3.742;2023-05-02T13:42:07;8.52;;;3.25;;
34019;SDS011;20895;51.034;3.742;2023-05-02T13:44:32;8.38;;;2.90;;
34019;SDS011;20895;51.034;3.742;2023-05-02T13:46:57;19.38;;;3.83;;
34019;SDS011;20895;51.034;3.742;2023-05-02T13:49:23;7.17;;;3.07;;
34019;SDS011;20895;51.034;3.742;2023-05-02T13:51:48;8.15;;;3.45;;
34019;SDS011;20895;51.034;3.742;2023-05-02T13:54:13;9.45;;;3.55;;
34019;SDS011;20895;51.034;3.742;2023-05-02T13:56:39;9.35;;;3.75;;
34019;SDS011;20895;51.034;3.742;2023-05-02T13:59:09;10.15;;;3.90;;
34019;SDS011;20895;51.034;3.742;2023-05-02T14:01:34;8.48;;;3.13;;
34019;SDS011;20895;51.034;3.742;2023-05-02T14:03:59;7.70;;;3.08;;
34019;SDS011;20895;51.034;3.742;2023-05-02T14:06:30;7.28;;;3.55;;
34019;SDS011;20895;51.034;3.742;2023-05-02T14:08:55;6.65;;;3.28;;
34019;SDS011;20895;51.034;3.742;2023-05-02T14:11:21;10.18;;;2.83;;
34019;SDS011;20895;51.034;3.742;2023-05-02T14:13:46;11.05;;;3.63;;
34019;SDS011;20895;51.034;3.742;2023-05-02T14:16:11;7.72;;;3.85;;
34019;SDS011;20895;51.034;3.742;2023-05-02T14:18:37;7.95;;;3.15;;
34019;SDS011;20895;51.034;3.742;2023-05-02T14:21:02;7.38;;;3.03;;
34019;SDS011;20895;51.034;3.742;2023-05-02T14:23:28;6.28;;;2.92;;
34019;SDS011;20895;51.034;3.742;2023-05-02T14:25:53;5.70;;;3.00;;
34019;SDS011;20895;51.034;3.742;2023-05-02T14:28:18;11.88;;;3.20;;
34019;SDS011;20895;51.034;3.742;2023-05-02T14:30:44;7.87;;;3.70;;
34019;SDS011;20895;51.034;3.742;2023-05-02T14:33:09;7.03;;;2.67;;
34019;SDS011;20895;51.034;3.742;2023-05-02T14:35:34;11.23;;;3.88;;
34019;SDS011;20895;51.034;3.742;2023-05-02T14:38:00;7.55;;;2.80;;
34019;SDS011;20895;51.034;3.742;2023-05-02T14:40:28;5.35;;;2.25;;
34019;SDS011;20895;51.034;3.742;2023-05-02T14:42:53;10.18;;;3.00;;
34019;SDS011;20895;51.034;3.742;2023-05-02T14:45:19;6.40;;;2.83;;
34019;SDS011;20895;51.034;3.742;2023-05-02T14:47:45;5.10;;;2.58;;
34019;SDS011;20895;51.034;3.742;2023-05-02T14:50:11;5.93;;;2.83;;
34019;SDS011;20895;51.034;3.742;2023-05-02T14:52:36;6.63;;;3.38;;
34019;SDS011;20895;51.034;3.742;2023-05-02T14:55:01;4.95;;;2.50;;
34019;SDS011;20895;51.034;3.742;2023-05-02T14:57:27;11.82;;;2.50;;
34019;SDS011;20895;51.034;3.742;2023-05-02T14:59:52;7.30;;;2.72;;
34019;SDS011;20895;51.034;3.742;2023-05-02T15:02:18;10.70;;;3.65;;
34019;SDS011;20895;51.034;3.742;2023-05-02T15:04:43;6.13;;;2.70;;
34019;SDS011;20895;51.034;3.742;2023-05-02T15:07:08;6.18;;;2.33;;